logo
Rechercher aéroport 
image banner adimage banner adimage banner ad
image banner ad

EGMT - Thurrock

Situé à Northolt, United Kingdom

ICAO - , IATA -

Données fournies par Airmate  

Information générale

Coordonnées: N51°32'17" E0°22'0"
Élévation : 30 feet MSL.
Variation magnétique : 0° East
Voir autres Aéroports à England

Données opérationnelles

Special qualification required
Heure actuelle UTC:
Heure actuelle locale:
Météo à : EGLC - London/City ( 22 km )
METAR: EGLC 230920Z AUTO 24012KT 9999 NCD 07/03 Q0987
TAF: TAF EGLC 230757Z 2309/2318 24010KT 9999 SCT025 TEMPO 2312/2318 7000 SHRA PROB30 TEMPO 2312/2318 4000 +SHRA BKN014CB
Voir NOTAMs / SUP AIP / TFR affectant cet aéroport [VIEW]
Fréquences de communication: [VIEW]

Pistes:

Identifiant RWYQFULongueur (ft)Largeur (ft)SurfaceLDA (ft)
07R213366GRAS2133
25L213366GRAS2133
07L246133ASPH2461
25R246133ASPH2461

Coordonnées de l'aéroport

Adresse: Northolt United Kingdom

Vue satellite de EGMT